createdAt,value
2023-03-17T00:01:51.512Z,99182.53
2023-03-17T00:04:19.589Z,99198.13
2023-03-17T00:06:46.634Z,99190.03
2023-03-17T00:09:14.908Z,99186.56
2023-03-17T00:11:42.189Z,99183.84
2023-03-17T00:14:09.253Z,99177.66
2023-03-17T00:16:42.892Z,99171.53
2023-03-17T00:19:26.599Z,99158.41
2023-03-17T00:21:53.237Z,99152.84
2023-03-17T00:24:19.684Z,99160.56
2023-03-17T00:26:46.945Z,99166.63
2023-03-17T00:29:13.514Z,99185.91
2023-03-17T00:31:40.438Z,99185.91
2023-03-17T00:34:08.037Z,99195.47
2023-03-17T00:36:35.821Z,99182.22
2023-03-17T00:39:02.332Z,99193.59
2023-03-17T00:41:29.596Z,99189.06
2023-03-17T00:43:57.243Z,99170.66
2023-03-17T00:46:28.774Z,99179.28
2023-03-17T00:48:55.510Z,99182.03
2023-03-17T00:51:23.296Z,99182.13
2023-03-17T00:53:49.959Z,99180.31
2023-03-17T00:56:19.881Z,99182.88
2023-03-17T00:58:47.627Z,99179.28
2023-03-17T01:01:14.301Z,99183.72
2023-03-17T01:03:41.514Z,99182.88
2023-03-17T01:06:11.606Z,99192.56
2023-03-17T01:08:40.769Z,99188.13
2023-03-17T01:11:14.654Z,99189.81
2023-03-17T01:13:41.696Z,99196.78
2023-03-17T01:16:12.379Z,99199.50
2023-03-17T01:18:39.660Z,99187.06
2023-03-17T01:21:09.375Z,99202.94
2023-03-17T01:23:35.860Z,99192.34
2023-03-17T01:26:02.243Z,99183.63
2023-03-17T01:28:29.035Z,99182.78
2023-03-17T01:30:55.481Z,99186.25
2023-03-17T01:33:22.145Z,99179.28
2023-03-17T01:35:50.684Z,99170.66
2023-03-17T01:38:17.482Z,99162.78
2023-03-17T01:40:47.875Z,99162.03
2023-03-17T01:43:24.160Z,99167.50
2023-03-17T01:46:21.037Z,99159.78
2023-03-17T01:49:06.737Z,99147.50
2023-03-17T01:51:53.308Z,99144.97
2023-03-17T01:54:28.745Z,99148.31
2023-03-17T01:57:01.906Z,99149.28
2023-03-17T01:59:33.713Z,99148.31
2023-03-17T02:02:06.284Z,99127.38
2023-03-17T02:04:33.986Z,99133.41
2023-03-17T02:07:02.477Z,99126.38
2023-03-17T02:09:29.274Z,99126.25
2023-03-17T02:11:57.589Z,99126.38
2023-03-17T02:14:24.279Z,99115.88
2023-03-17T02:16:50.677Z,99122.91
2023-03-17T02:19:17.188Z,99125.63
2023-03-17T02:21:49.229Z,99123.00
2023-03-17T02:24:33.111Z,99124.97
2023-03-17T02:27:06.675Z,99115.19
2023-03-17T02:29:35.856Z,99110.03
2023-03-17T02:32:02.416Z,99095.13
2023-03-17T02:34:28.816Z,99097.75
2023-03-17T02:36:55.330Z,99109.31
2023-03-17T02:39:21.717Z,99118.13
2023-03-17T02:41:48.168Z,99118.97
2023-03-17T02:44:14.522Z,99111.94
2023-03-17T02:46:41.399Z,99117.19
2023-03-17T02:49:08.467Z,99112.78
2023-03-17T02:51:34.863Z,99115.41
2023-03-17T02:54:01.742Z,99110.25
2023-03-17T02:56:28.133Z,99111.84
2023-03-17T02:58:54.509Z,99110.88
2023-03-17T03:01:21.228Z,99109.94
2023-03-17T03:03:48.023Z,99104.59
2023-03-17T03:06:14.678Z,99111.53
2023-03-17T03:08:41.111Z,99108.06
2023-03-17T03:11:07.491Z,99104.59
2023-03-17T03:13:33.890Z,99099.34
2023-03-17T03:16:00.579Z,99094.06
2023-03-17T03:18:27.097Z,99106.25
2023-03-17T03:20:53.534Z,99103.63
2023-03-17T03:23:19.935Z,99114.16
2023-03-17T03:25:46.611Z,99101.78
2023-03-17T03:28:13.603Z,99113.00
2023-03-17T03:30:40.966Z,99107.66
2023-03-17T03:33:07.775Z,99111.16
2023-03-17T03:35:34.460Z,99104.09
2023-03-17T03:38:01.506Z,99105.88
2023-03-17T03:40:28.463Z,99099.78
2023-03-17T03:42:54.926Z,99097.06
2023-03-17T03:45:21.239Z,99093.69
2023-03-17T03:47:47.549Z,99090.94
2023-03-17T03:50:14.256Z,99097.91
2023-03-17T03:52:40.922Z,99104.84
2023-03-17T03:55:08.126Z,99101.25
2023-03-17T03:57:34.852Z,99102.03
2023-03-17T04:00:01.590Z,99101.06
2023-03-17T04:02:28.004Z,99097.50
2023-03-17T04:04:54.591Z,99103.59
2023-03-17T04:07:21.356Z,99100.75
2023-03-17T04:09:49.180Z,99102.34
2023-03-17T04:12:17.665Z,99096.16
2023-03-17T04:14:44.504Z,99086.34
2023-03-17T04:17:11.972Z,99073.13
2023-03-17T04:19:38.827Z,99075.75
2023-03-17T04:22:07.364Z,99081.75
2023-03-17T04:24:34.707Z,99071.09
2023-03-17T04:27:04.195Z,99079.13
2023-03-17T04:29:31.989Z,99080.91
2023-03-17T04:31:58.398Z,99086.88
2023-03-17T04:34:24.774Z,99081.53
2023-03-17T04:36:51.508Z,99083.22
2023-03-17T04:39:18.306Z,99090.09
2023-03-17T04:41:44.793Z,99082.06
2023-03-17T04:44:11.123Z,99081.97
2023-03-17T04:46:38.230Z,99070.63
2023-03-17T04:49:04.596Z,99071.34
2023-03-17T04:51:31.194Z,99064.41
2023-03-17T04:53:57.543Z,99062.50
2023-03-17T04:56:23.937Z,99059.06
2023-03-17T04:58:50.347Z,99064.41
2023-03-17T05:01:17.203Z,99056.50
2023-03-17T05:03:43.777Z,99059.06
2023-03-17T05:06:10.148Z,99062.50
2023-03-17T05:08:36.675Z,99051.06
2023-03-17T05:11:03.015Z,99059.88
2023-03-17T05:13:29.497Z,99059.06
2023-03-17T05:15:56.906Z,99047.69
2023-03-17T05:18:25.371Z,99051.16
2023-03-17T05:20:52.179Z,99052.94
2023-03-17T05:23:18.984Z,99048.63
2023-03-17T05:25:45.674Z,99054.84
2023-03-17T05:28:12.307Z,99047.88
2023-03-17T05:30:38.851Z,99042.84
2023-03-17T05:33:06.063Z,99058.63
2023-03-17T05:35:32.539Z,99062.16
2023-03-17T05:37:58.931Z,99064.94
2023-03-17T05:40:25.298Z,99076.38
2023-03-17T05:42:51.722Z,99060.72
2023-03-17T05:45:18.592Z,99065.03
2023-03-17T05:47:45.637Z,99053.56
2023-03-17T05:50:12.762Z,99051.88
2023-03-17T05:52:39.165Z,99053.66
2023-03-17T05:55:06.242Z,99057.13
2023-03-17T05:57:32.651Z,99064.38
2023-03-17T05:59:58.997Z,99076.59
2023-03-17T06:02:25.474Z,99073.22
2023-03-17T06:04:52.099Z,99065.41
2023-03-17T06:07:18.480Z,99068.03
2023-03-17T06:09:44.815Z,99073.31
2023-03-17T06:12:11.292Z,99073.31
2023-03-17T06:14:37.638Z,99065.31
2023-03-17T06:17:04.568Z,99063.66
2023-03-17T06:19:31.023Z,99060.06
2023-03-17T06:22:00.520Z,99066.28
2023-03-17T06:24:26.987Z,99060.16
2023-03-17T06:26:53.385Z,99062.78
2023-03-17T06:29:20.154Z,99063.75
2023-03-17T06:31:51.297Z,99058.47
2023-03-17T06:34:18.795Z,99067.31
2023-03-17T06:36:45.456Z,99072.59
2023-03-17T06:39:12.805Z,99075.22
2023-03-17T06:41:39.512Z,99083.00
2023-03-17T06:44:06.392Z,99073.31
2023-03-17T06:46:33.246Z,99067.13
2023-03-17T06:48:59.705Z,99072.25
2023-03-17T06:51:26.124Z,99079.94
2023-03-17T06:53:52.815Z,99074.59
2023-03-17T06:56:29.407Z,99078.72
2023-03-17T06:58:56.901Z,99069.88
2023-03-17T07:01:23.457Z,99069.56
2023-03-17T07:03:49.948Z,99069.25
2023-03-17T07:06:16.356Z,99064.63
2023-03-17T07:08:42.829Z,99054.75
2023-03-17T07:11:09.792Z,99060.56
2023-03-17T07:13:38.623Z,99059.31
2023-03-17T07:16:05.455Z,99057.28
2023-03-17T07:18:34.688Z,99062.25
2023-03-17T07:21:02.192Z,99056.69
2023-03-17T07:23:30.312Z,99064.25
2023-03-17T07:28:48.826Z,99059.19
2023-03-17T07:31:15.395Z,99065.94
2023-03-17T07:33:42.220Z,99059.50
2023-03-17T07:36:09.218Z,99064.53
2023-03-17T07:38:36.313Z,99067.72
2023-03-17T07:41:04.664Z,99077.09
2023-03-17T07:43:31.932Z,99074.13
2023-03-17T07:45:58.859Z,99075.59
2023-03-17T07:48:25.570Z,99080.44
2023-03-17T07:50:52.287Z,99079.28
2023-03-17T07:53:19.305Z,99066.63
2023-03-17T07:55:45.848Z,99072.41
2023-03-17T07:58:15.178Z,99067.63
2023-03-17T08:00:42.351Z,99069.84
2023-03-17T08:03:10.950Z,99058.97
2023-03-17T08:05:38.079Z,99060.31
2023-03-17T08:08:06.686Z,99067.88
2023-03-17T08:10:33.739Z,99064.91
2023-03-17T08:13:00.868Z,99065.41
2023-03-17T08:15:27.519Z,99058.00
2023-03-17T08:17:54.227Z,99056.00
2023-03-17T08:20:21.836Z,99066.09
2023-03-17T08:22:48.341Z,99056.03
2023-03-17T08:25:15.071Z,99056.69
2023-03-17T08:27:42.511Z,99049.25
2023-03-17T08:30:10.040Z,99046.25
2023-03-17T08:32:36.909Z,99042.34
2023-03-17T08:35:05.715Z,99048.97
2023-03-17T08:37:32.669Z,99032.72
2023-03-17T08:39:59.143Z,99036.66
2023-03-17T08:42:25.979Z,99038.97
2023-03-17T08:44:52.478Z,99030.66
2023-03-17T08:47:18.996Z,99040.91
2023-03-17T08:49:45.561Z,99035.28
2023-03-17T08:52:12.208Z,99033.00
2023-03-17T08:54:38.880Z,99021.09
2023-03-17T08:57:05.406Z,99021.50
2023-03-17T08:59:31.900Z,99018.38
2023-03-17T09:01:58.460Z,99030.25
2023-03-17T09:04:25.888Z,99040.34
2023-03-17T09:07:03.356Z,99049.81
2023-03-17T09:09:31.134Z,99043.34
2023-03-17T09:11:57.759Z,99039.50
2023-03-17T09:14:25.040Z,99047.31
2023-03-17T09:16:52.283Z,99044.44
2023-03-17T09:19:19.131Z,99050.31
2023-03-17T09:21:46.178Z,99042.84
2023-03-17T09:24:13.694Z,99046.22
2023-03-17T09:26:40.488Z,99051.97
2023-03-17T09:29:07.500Z,99058.69
2023-03-17T09:31:36.435Z,99051.25
2023-03-17T09:34:06.374Z,99062.41
2023-03-17T09:36:33.696Z,99054.00
2023-03-17T09:39:01.367Z,99060.59
2023-03-17T09:41:34.255Z,99052.28
2023-03-17T09:44:19.703Z,99053.59
2023-03-17T09:47:15.525Z,99036.06
2023-03-17T09:49:48.547Z,99041.19
2023-03-17T09:52:28.591Z,99057.84
2023-03-17T09:54:56.014Z,99059.94
2023-03-17T09:57:26.220Z,99059.91
2023-03-17T10:00:01.529Z,99051.31
2023-03-17T10:02:39.322Z,99044.88
2023-03-17T10:05:27.846Z,99048.53
2023-03-17T10:08:45.980Z,99051.69
2023-03-17T10:11:31.394Z,99043.91
2023-03-17T10:14:00.743Z,99048.69
2023-03-17T10:16:54.846Z,99044.00
2023-03-17T10:19:31.438Z,99037.06
2023-03-17T10:22:04.274Z,99039.22
2023-03-17T10:24:32.984Z,99044.81
2023-03-17T10:27:04.654Z,99035.47
2023-03-17T10:29:32.443Z,99039.69
2023-03-17T10:31:59.097Z,99042.25
2023-03-17T10:34:32.639Z,99046.69
2023-03-17T10:37:06.921Z,99051.28
2023-03-17T10:39:44.716Z,99056.75
2023-03-17T10:42:19.669Z,99059.53
2023-03-17T10:44:48.993Z,99040.50
2023-03-17T10:47:39.681Z,99040.50
2023-03-17T10:50:15.478Z,99032.66
2023-03-17T10:52:42.434Z,99036.28
2023-03-17T10:55:15.286Z,99029.84
2023-03-17T10:58:09.954Z,99029.25
2023-03-17T11:00:38.498Z,99036.91
2023-03-17T11:03:18.441Z,99035.03
2023-03-17T11:05:56.973Z,99040.03
2023-03-17T11:08:24.063Z,99037.59
2023-03-17T11:10:56.691Z,99028.75
2023-03-17T11:13:29.260Z,99028.22
2023-03-17T11:16:02.052Z,99031.34
2023-03-17T11:18:34.849Z,99034.19
2023-03-17T11:21:16.048Z,99028.31
2023-03-17T11:23:48.677Z,99032.50
2023-03-17T11:26:18.914Z,99029.66
2023-03-17T11:29:07.871Z,99029.31
2023-03-17T11:31:42.475Z,99026.00
2023-03-17T11:34:20.029Z,99036.59
2023-03-17T11:37:21.379Z,99042.09
2023-03-17T11:39:59.815Z,99029.16
2023-03-17T11:42:37.729Z,99026.69
2023-03-17T11:45:23.773Z,99039.69
2023-03-17T11:48:14.421Z,99022.94
2023-03-17T11:50:49.888Z,99017.69
2023-03-17T11:53:25.438Z,99022.16
2023-03-17T11:56:01.657Z,99013.75
2023-03-17T11:58:44.936Z,99011.69
2023-03-17T12:01:19.386Z,99004.75
2023-03-17T12:04:00.498Z,99012.22
2023-03-17T12:06:38.398Z,99007.59
2023-03-17T12:09:25.961Z,99017.19
2023-03-17T12:11:56.469Z,99013.38
2023-03-17T12:14:32.567Z,99018.03
2023-03-17T12:17:10.797Z,99010.25
2023-03-17T12:19:45.671Z,99009.25
2023-03-17T12:22:12.108Z,99007.03
2023-03-17T12:24:50.392Z,99014.06
2023-03-17T12:27:27.241Z,99002.06
2023-03-17T12:30:20.876Z,99008.56
2023-03-17T12:32:50.402Z,99010.72
2023-03-17T12:35:27.885Z,99000.34
2023-03-17T12:37:58.137Z,99006.22
2023-03-17T12:40:50.394Z,98997.84
2023-03-17T12:43:41.295Z,98992.03
2023-03-17T12:46:28.664Z,98986.69
2023-03-17T12:49:22.983Z,98988.41
2023-03-17T12:52:22.007Z,98991.38
2023-03-17T12:54:51.974Z,98991.72
2023-03-17T12:57:22.486Z,98995.31
2023-03-17T12:59:57.576Z,98981.75
2023-03-17T13:02:27.205Z,98981.66
2023-03-17T13:05:00.815Z,98976.63
2023-03-17T13:07:37.836Z,98969.13
2023-03-17T13:10:14.007Z,98967.19
2023-03-17T13:12:40.455Z,98974.94
2023-03-17T13:15:25.349Z,98973.03
2023-03-17T13:18:10.645Z,98971.78
2023-03-17T13:20:40.225Z,98958.19
2023-03-17T13:23:16.066Z,98960.94
2023-03-17T13:25:42.930Z,98950.78
2023-03-17T13:28:12.239Z,98950.34
2023-03-17T13:30:38.727Z,98945.16
2023-03-17T13:33:11.435Z,98937.03
2023-03-17T13:35:53.001Z,98921.50
2023-03-17T13:38:22.261Z,98910.66
2023-03-17T13:41:07.003Z,98913.97
2023-03-17T13:43:44.032Z,98921.16
2023-03-17T13:46:39.293Z,98922.19
2023-03-17T13:49:19.460Z,98911.69
2023-03-17T13:52:07.188Z,98916.50
2023-03-17T13:54:40.708Z,98929.34
2023-03-17T13:57:27.272Z,98928.31
2023-03-17T14:00:11.791Z,98931.75
2023-03-17T14:02:39.944Z,98927.00
2023-03-17T14:05:08.892Z,98920.59
2023-03-17T14:07:47.946Z,98913.50
2023-03-17T14:10:20.321Z,98912.56
2023-03-17T14:13:22.356Z,98917.16
2023-03-17T14:16:14.345Z,98918.31
2023-03-17T14:18:47.265Z,98923.72
2023-03-17T14:21:24.371Z,98932.25
2023-03-17T14:23:56.188Z,98929.19
2023-03-17T14:26:24.701Z,98931.97
2023-03-17T14:28:51.498Z,98929.03
2023-03-17T14:31:24.916Z,98932.66
2023-03-17T14:33:56.428Z,98930.03
2023-03-17T14:36:23.772Z,98934.47
2023-03-17T14:38:52.871Z,98927.28
2023-03-17T14:41:25.256Z,98925.50
2023-03-17T14:43:54.399Z,98931.72
2023-03-17T14:46:26.750Z,98930.00
2023-03-17T14:48:58.428Z,98935.69
2023-03-17T14:51:36.529Z,98926.78
2023-03-17T14:54:12.344Z,98926.22
2023-03-17T14:56:42.646Z,98932.72
2023-03-17T14:59:34.423Z,98926.22
2023-03-17T15:02:35.465Z,98929.63
2023-03-17T15:05:17.238Z,98938.84
2023-03-17T15:07:43.789Z,98931.16
2023-03-17T15:10:19.305Z,98932.22
2023-03-17T15:12:47.438Z,98922.53
2023-03-17T15:15:22.023Z,98913.19
2023-03-17T15:17:52.281Z,98918.38
2023-03-17T15:20:19.882Z,98920.50
2023-03-17T15:22:57.504Z,98917.66
2023-03-17T15:25:33.013Z,98919.94
2023-03-17T15:27:59.863Z,98909.81
2023-03-17T15:30:29.454Z,98911.44
2023-03-17T15:33:01.240Z,98916.03
2023-03-17T15:35:27.903Z,98920.06
2023-03-17T15:37:55.482Z,98923.91
2023-03-17T15:40:22.221Z,98925.50
2023-03-17T15:42:48.665Z,98915.34
2023-03-17T15:45:16.714Z,98913.81
2023-03-17T15:47:46.928Z,98910.44
2023-03-17T15:50:17.833Z,98889.44
2023-03-17T15:52:45.613Z,98891.66
2023-03-17T15:55:19.866Z,98885.97
2023-03-17T15:57:54.882Z,98898.41
2023-03-17T16:00:24.589Z,98895.94
2023-03-17T16:02:57.221Z,98903.97
2023-03-17T16:05:27.711Z,98894.25
2023-03-17T16:07:54.757Z,98900.44
2023-03-17T16:10:26.698Z,98901.75
2023-03-17T16:12:53.144Z,98901.09
2023-03-17T16:15:25.703Z,98904.25
2023-03-17T16:17:59.145Z,98902.69
2023-03-17T16:20:41.610Z,98908.84
2023-03-17T16:23:14.344Z,98909.56
2023-03-17T16:25:41.530Z,98903.28
2023-03-17T16:28:13.855Z,98899.03
2023-03-17T16:30:40.720Z,98905.59
2023-03-17T16:33:25.374Z,98912.16
2023-03-17T16:35:54.393Z,98910.13
2023-03-17T16:38:23.491Z,98921.00
2023-03-17T16:41:00.942Z,98918.19
2023-03-17T16:43:30.618Z,98919.69
2023-03-17T16:45:59.260Z,98921.50
2023-03-17T16:48:26.185Z,98930.53
2023-03-17T16:50:53.378Z,98913.84
2023-03-17T16:53:20.575Z,98914.84
2023-03-17T16:55:47.802Z,98922.00
2023-03-17T16:58:20.176Z,98927.31
2023-03-17T17:00:48.510Z,98930.66
2023-03-17T17:03:15.303Z,98926.81
2023-03-17T17:05:42.591Z,98930.09
2023-03-17T17:08:09.352Z,98925.41
2023-03-17T17:10:37.084Z,98928.75
2023-03-17T17:13:07.683Z,98924.03
2023-03-17T17:15:36.125Z,98925.50
2023-03-17T17:18:11.446Z,98931.66
2023-03-17T17:20:40.196Z,98938.31
2023-03-17T17:23:11.828Z,98955.94
2023-03-17T17:25:38.702Z,98937.75
2023-03-17T17:28:05.536Z,98947.22
2023-03-17T17:30:32.539Z,98939.88
2023-03-17T17:33:00.808Z,98937.00
2023-03-17T17:35:32.001Z,98929.47
2023-03-17T17:37:59.878Z,98926.47
2023-03-17T17:40:26.799Z,98932.25
2023-03-17T17:42:54.293Z,98933.75
2023-03-17T17:45:21.434Z,98928.88
2023-03-17T17:47:48.302Z,98927.63
2023-03-17T17:50:25.616Z,98932.09
2023-03-17T17:52:52.948Z,98936.56
2023-03-17T17:55:19.538Z,98936.06
2023-03-17T17:57:46.122Z,98933.69
2023-03-17T18:00:16.660Z,98934.00
2023-03-17T18:02:43.564Z,98945.13
2023-03-17T18:05:10.936Z,98947.25
2023-03-17T18:07:37.424Z,98937.88
2023-03-17T18:10:05.609Z,98947.16
2023-03-17T18:12:32.112Z,98943.00
2023-03-17T18:14:58.641Z,98943.31
2023-03-17T18:17:25.073Z,98948.94
2023-03-17T18:19:55.494Z,98950.09
2023-03-17T18:22:22.633Z,98942.41
2023-03-17T18:24:49.344Z,98948.03
2023-03-17T18:27:16.871Z,98950.88
2023-03-17T18:29:43.945Z,98948.66
2023-03-17T18:32:12.102Z,98959.44
2023-03-17T18:34:43.470Z,98956.41
2023-03-17T18:37:13.198Z,98962.88
2023-03-17T18:39:41.097Z,98957.69
2023-03-17T18:42:08.308Z,98961.50
2023-03-17T18:44:34.993Z,98963.63
2023-03-17T18:47:01.578Z,98960.41
2023-03-17T18:49:28.418Z,98957.09
2023-03-17T18:51:56.317Z,98951.19
2023-03-17T18:54:23.698Z,98934.72
2023-03-17T18:56:50.592Z,98936.72
2023-03-17T18:59:17.019Z,98935.16
2023-03-17T19:01:43.584Z,98934.63
2023-03-17T19:04:10.031Z,98937.56
2023-03-17T19:06:39.406Z,98956.34
2023-03-17T19:09:06.722Z,98958.44
2023-03-17T19:11:33.346Z,98964.22
2023-03-17T19:13:59.781Z,98961.00
2023-03-17T19:16:29.163Z,98962.47
2023-03-17T19:18:56.813Z,98952.25
2023-03-17T19:21:23.901Z,98952.53
2023-03-17T19:23:51.098Z,98956.34
2023-03-17T19:26:18.381Z,98961.78
2023-03-17T19:28:45.036Z,98957.59
2023-03-17T19:31:11.737Z,98960.41
2023-03-17T19:33:38.653Z,98962.41
2023-03-17T19:36:11.336Z,98964.34
2023-03-17T19:38:38.365Z,98959.19
2023-03-17T19:41:05.321Z,98960.16
2023-03-17T19:43:40.377Z,98960.31
2023-03-17T19:46:08.960Z,98951.81
2023-03-17T19:48:36.513Z,98952.94
2023-03-17T19:51:03.205Z,98945.09
2023-03-17T19:53:29.882Z,98947.22
2023-03-17T19:55:56.909Z,98951.00
2023-03-17T19:58:23.510Z,98934.38
2023-03-17T20:01:01.573Z,98928.66
2023-03-17T20:03:28.415Z,98929.66
2023-03-17T20:05:55.050Z,98932.59
2023-03-17T20:08:22.519Z,98938.19
2023-03-17T20:10:54.009Z,98938.63
2023-03-17T20:13:21.921Z,98953.03
2023-03-17T20:15:49.579Z,98957.78
2023-03-17T20:18:17.078Z,98960.75
2023-03-17T20:20:49.434Z,98962.16
2023-03-17T20:23:16.829Z,98962.56
2023-03-17T20:25:43.665Z,98960.22
2023-03-17T20:28:11.462Z,98959.78
2023-03-17T20:30:39.716Z,98963.69
2023-03-17T20:33:08.307Z,98970.09
2023-03-17T20:35:35.336Z,98974.72
2023-03-17T20:38:02.005Z,98975.13
2023-03-17T20:40:28.865Z,98979.06
2023-03-17T20:42:55.873Z,98982.97
2023-03-17T20:45:23.128Z,98977.13
2023-03-17T20:47:49.960Z,98980.03
2023-03-17T20:50:16.911Z,98983.00
2023-03-17T20:52:43.780Z,98983.25
2023-03-17T20:55:14.039Z,98985.19
2023-03-17T20:57:42.600Z,98993.47
2023-03-17T21:00:13.319Z,98987.56
2023-03-17T21:02:39.899Z,98989.41
2023-03-17T21:05:07.399Z,98994.00
2023-03-17T21:07:33.992Z,98997.63
2023-03-17T21:10:02.059Z,98990.78
2023-03-17T21:12:28.632Z,98991.78
2023-03-17T21:14:55.777Z,98992.59
2023-03-17T21:17:22.813Z,98992.03
2023-03-17T21:19:49.329Z,98991.31
2023-03-17T21:22:16.134Z,98987.13
2023-03-17T21:24:42.645Z,98989.97
2023-03-17T21:27:11.290Z,98990.09
2023-03-17T21:29:38.998Z,98987.56
2023-03-17T21:32:08.397Z,98992.16
2023-03-17T21:34:35.909Z,98989.50
2023-03-17T21:37:02.579Z,98996.66
2023-03-17T21:39:29.788Z,98991.59
2023-03-17T21:41:57.091Z,98995.38
2023-03-17T21:44:23.668Z,99002.47
2023-03-17T21:46:50.879Z,99001.78
2023-03-17T21:49:18.734Z,99001.91
2023-03-17T21:51:46.681Z,98999.41
2023-03-17T21:54:14.190Z,98998.56
2023-03-17T21:56:41.603Z,98999.53
2023-03-17T21:59:10.893Z,98997.00
2023-03-17T22:01:39.548Z,98998.84
2023-03-17T22:04:07.369Z,98996.31
2023-03-17T22:06:34.239Z,98999.97
2023-03-17T22:09:00.840Z,98986.84
2023-03-17T22:11:27.306Z,98997.56
2023-03-17T22:13:53.918Z,99001.19
2023-03-17T22:16:21.771Z,99007.44
2023-03-17T22:18:48.501Z,98998.94
2023-03-17T22:21:15.113Z,98997.41
2023-03-17T22:23:42.368Z,99006.47
2023-03-17T22:26:12.544Z,98998.66
2023-03-17T22:28:40.773Z,99004.06
2023-03-17T22:31:18.894Z,99004.38
2023-03-17T22:33:48.404Z,98995.56
2023-03-17T22:36:15.825Z,99009.94
2023-03-17T22:38:42.374Z,99005.75
2023-03-17T22:41:13.126Z,99012.28
2023-03-17T22:43:40.301Z,99011.56
2023-03-17T22:46:10.563Z,99010.16
2023-03-17T22:48:37.353Z,99021.13
2023-03-17T22:51:06.078Z,99020.53
2023-03-17T22:53:33.208Z,99022.63
2023-03-17T22:56:00.762Z,99018.44
2023-03-17T22:58:27.681Z,99023.97
2023-03-17T23:00:55.248Z,99020.63
2023-03-17T23:03:23.301Z,99016.44
2023-03-17T23:05:52.203Z,99021.03
2023-03-17T23:08:20.084Z,99016.81
2023-03-17T23:10:50.997Z,99020.56
2023-03-17T23:13:19.402Z,99023.34
2023-03-17T23:15:46.766Z,99015.66
2023-03-17T23:18:14.041Z,99024.72
2023-03-17T23:20:40.980Z,99018.84
2023-03-17T23:23:08.804Z,99028.00
2023-03-17T23:25:36.663Z,99029.25
2023-03-17T23:28:03.441Z,99028.66
2023-03-17T23:30:30.877Z,99028.91
2023-03-17T23:32:58.088Z,99031.00
2023-03-17T23:35:25.264Z,99042.81
2023-03-17T23:37:52.021Z,99037.06
2023-03-17T23:40:22.112Z,99034.09
2023-03-17T23:42:49.132Z,99035.16
2023-03-17T23:45:19.160Z,99035.69
2023-03-17T23:47:47.124Z,99042.94
2023-03-17T23:50:15.797Z,99040.66
2023-03-17T23:52:43.226Z,99040.91
2023-03-17T23:55:12.062Z,99045.59
2023-03-17T23:57:39.409Z,99040.56
